createdAt,value
2022-11-02T00:00:13.427Z,100345.34
2022-11-02T00:02:41.366Z,100334.66
2022-11-02T00:05:11.601Z,100341.47
2022-11-02T00:07:38.238Z,100339.41
2022-11-02T00:10:05.143Z,100337.50
2022-11-02T00:12:31.726Z,100338.75
2022-11-02T00:14:58.278Z,100325.34
2022-11-02T00:17:25.009Z,100330.28
2022-11-02T00:19:51.610Z,100323.94
2022-11-02T00:22:18.274Z,100318.78
2022-11-02T00:24:44.821Z,100312.56
2022-11-02T00:27:11.458Z,100316.09
2022-11-02T00:29:38.242Z,100315.50
2022-11-02T00:32:05.944Z,100307.88
2022-11-02T00:34:32.841Z,100304.09
2022-11-02T00:36:59.803Z,100301.03
2022-11-02T00:39:26.362Z,100310.13
2022-11-02T00:41:53.434Z,100296.09
2022-11-02T00:44:21.505Z,100286.16
2022-11-02T00:46:48.216Z,100293.41
2022-11-02T00:49:15.030Z,100305.16
2022-11-02T00:51:43.465Z,100287.44
2022-11-02T00:54:10.073Z,100267.84
2022-11-02T00:56:39.134Z,100285.78
2022-11-02T00:59:05.889Z,100297.97
2022-11-02T01:01:32.689Z,100276.28
2022-11-02T01:03:59.528Z,100266.81
2022-11-02T01:06:26.195Z,100287.84
2022-11-02T01:08:58.040Z,100276.19
2022-11-02T01:11:24.760Z,100267.19
2022-11-02T01:13:52.178Z,100263.28
2022-11-02T01:16:19.066Z,100250.44
2022-11-02T01:18:45.846Z,100260.69
2022-11-02T01:21:14.950Z,100241.78
2022-11-02T01:23:41.550Z,100249.84
2022-11-02T01:26:10.481Z,100250.06
2022-11-02T01:28:37.296Z,100245.69
2022-11-02T01:31:04.070Z,100249.41
2022-11-02T01:33:34.259Z,100234.44
2022-11-02T01:36:04.325Z,100242.94
2022-11-02T01:38:31.747Z,100244.31
2022-11-02T01:40:58.950Z,100238.22
2022-11-02T01:43:29.741Z,100244.56
2022-11-02T01:46:05.605Z,100232.59
2022-11-02T01:48:35.436Z,100246.44
2022-11-02T01:51:04.845Z,100241.03
2022-11-02T01:53:33.365Z,100236.06
2022-11-02T01:56:00.960Z,100236.72
2022-11-02T01:58:27.695Z,100239.34
2022-11-02T02:00:54.986Z,100237.59
2022-11-02T02:03:22.074Z,100234.72
2022-11-02T02:05:59.118Z,100225.28
2022-11-02T02:08:27.062Z,100224.63
2022-11-02T02:10:57.844Z,100220.09
2022-11-02T02:13:29.642Z,100228.94
2022-11-02T02:16:14.789Z,100227.81
2022-11-02T02:18:50.740Z,100226.25
2022-11-02T02:21:36.079Z,100228.75
2022-11-02T02:24:24.856Z,100228.34
2022-11-02T02:27:17.758Z,100229.00
2022-11-02T02:29:56.505Z,100231.72
2022-11-02T02:32:54.096Z,100227.75
2022-11-02T02:35:26.619Z,100223.22
2022-11-02T02:37:56.739Z,100228.38
2022-11-02T02:40:34.705Z,100223.47
2022-11-02T02:43:13.629Z,100210.88
2022-11-02T02:45:51.200Z,100216.22
2022-11-02T02:48:20.123Z,100214.16
2022-11-02T02:50:51.239Z,100221.97
2022-11-02T02:53:22.827Z,100228.41
2022-11-02T02:55:50.870Z,100215.63
2022-11-02T02:58:27.012Z,100221.78
2022-11-02T03:00:54.679Z,100225.09
2022-11-02T03:03:26.626Z,100219.56
2022-11-02T03:06:16.440Z,100222.44
2022-11-02T03:09:06.149Z,100212.56
2022-11-02T03:11:34.890Z,100207.81
2022-11-02T03:14:02.698Z,100215.03
2022-11-02T03:16:36.429Z,100208.69
2022-11-02T03:19:31.064Z,100200.19
2022-11-02T03:22:06.831Z,100205.16
2022-11-02T03:24:36.798Z,100199.78
2022-11-02T03:27:18.609Z,100195.25
2022-11-02T03:29:48.573Z,100186.00
2022-11-02T03:32:28.499Z,100199.41
2022-11-02T03:34:58.531Z,100204.97
2022-11-02T03:37:40.393Z,100213.41
2022-11-02T03:40:15.453Z,100206.00
2022-11-02T03:42:43.996Z,100211.53
2022-11-02T03:45:14.764Z,100205.16
2022-11-02T03:47:44.318Z,100218.75
2022-11-02T03:50:12.679Z,100228.03
2022-11-02T03:52:41.494Z,100236.47
2022-11-02T03:55:12.248Z,100231.34
2022-11-02T03:57:46.102Z,100235.03
2022-11-02T04:00:19.245Z,100221.03
2022-11-02T04:02:57.715Z,100234.63
2022-11-02T04:05:35.919Z,100241.22
2022-11-02T04:08:21.702Z,100243.28
2022-11-02T04:11:11.461Z,100247.63
2022-11-02T04:13:58.157Z,100241.66
2022-11-02T04:16:28.285Z,100244.72
2022-11-02T04:19:15.100Z,100237.75
2022-11-02T04:22:02.952Z,100242.28
2022-11-02T04:24:49.777Z,100247.63
2022-11-02T04:27:20.876Z,100247.41
2022-11-02T04:29:48.985Z,100251.13
2022-11-02T04:32:37.129Z,100253.38
2022-11-02T04:35:06.592Z,100252.75
2022-11-02T04:38:00.611Z,100257.91
2022-11-02T04:40:30.259Z,100257.09
2022-11-02T04:42:57.954Z,100260.59
2022-11-02T04:45:25.282Z,100264.72
2022-11-02T04:47:53.230Z,100249.03
2022-11-02T04:50:19.879Z,100266.38
2022-11-02T04:52:55.509Z,100266.16
2022-11-02T04:55:22.187Z,100256.66
2022-11-02T04:57:56.565Z,100257.69
2022-11-02T05:00:23.919Z,100247.81
2022-11-02T05:02:52.263Z,100259.16
2022-11-02T05:05:21.231Z,100240.59
2022-11-02T05:07:51.748Z,100256.06
2022-11-02T05:10:18.519Z,100243.09
2022-11-02T05:12:46.833Z,100247.84
2022-11-02T05:15:14.082Z,100233.41
2022-11-02T05:17:41.062Z,100238.75
2022-11-02T05:20:09.188Z,100238.56
2022-11-02T05:22:35.835Z,100244.72
2022-11-02T05:25:02.600Z,100245.75
2022-11-02T05:27:29.963Z,100235.25
2022-11-02T05:29:56.905Z,100243.09
2022-11-02T05:32:23.600Z,100240.38
2022-11-02T05:34:50.383Z,100246.59
2022-11-02T05:37:17.218Z,100246.38
2022-11-02T05:39:46.385Z,100254.00
2022-11-02T05:42:16.168Z,100249.69
2022-11-02T05:44:43.098Z,100244.94
2022-11-02T05:47:09.750Z,100245.78
2022-11-02T05:49:36.322Z,100259.56
2022-11-02T05:52:02.964Z,100258.56
2022-11-02T05:54:29.663Z,100250.94
2022-11-02T05:56:57.152Z,100258.34
2022-11-02T05:59:26.236Z,100258.94
2022-11-02T06:01:52.966Z,100273.59
2022-11-02T06:04:19.819Z,100265.97
2022-11-02T06:06:46.528Z,100264.50
2022-11-02T06:09:13.138Z,100253.38
2022-11-02T06:11:39.761Z,100276.44
2022-11-02T06:14:08.778Z,100270.50
2022-11-02T06:16:35.345Z,100264.72
2022-11-02T06:19:01.996Z,100265.16
2022-11-02T06:21:28.672Z,100269.88
2022-11-02T06:23:59.908Z,100279.16
2022-11-02T06:26:26.561Z,100275.88
2022-11-02T06:28:53.158Z,100282.06
2022-11-02T06:31:20.026Z,100269.41
2022-11-02T06:33:46.736Z,100282.41
2022-11-02T06:36:19.494Z,100302.00
2022-11-02T06:38:46.206Z,100311.31
2022-11-02T06:41:12.755Z,100309.66
2022-11-02T06:43:40.132Z,100313.16
2022-11-02T06:46:06.795Z,100310.28
2022-11-02T06:48:39.142Z,100329.22
2022-11-02T06:51:06.447Z,100318.09
2022-11-02T06:53:33.156Z,100337.09
2022-11-02T06:56:00.251Z,100328.22
2022-11-02T06:58:27.359Z,100326.34
2022-11-02T07:01:02.594Z,100345.13
2022-11-02T07:03:31.333Z,100345.34
2022-11-02T07:05:58.189Z,100347.22
2022-11-02T07:08:28.061Z,100354.19
2022-11-02T07:10:55.037Z,100360.19
2022-11-02T07:13:22.256Z,100367.81
2022-11-02T07:15:57.261Z,100375.41
2022-11-02T07:18:24.109Z,100370.09
2022-11-02T07:20:50.860Z,100375.66
2022-11-02T07:23:17.514Z,100378.94
2022-11-02T07:25:44.042Z,100385.53
2022-11-02T07:28:17.901Z,100385.88
2022-11-02T07:30:44.656Z,100386.16
2022-11-02T07:33:11.415Z,100395.03
2022-11-02T07:35:38.072Z,100394.22
2022-11-02T07:38:06.360Z,100397.94
2022-11-02T07:40:34.743Z,100400.38
2022-11-02T07:43:01.903Z,100406.19
2022-11-02T07:45:53.353Z,100408.06
2022-11-02T07:48:20.074Z,100411.56
2022-11-02T07:50:49.101Z,100423.28
2022-11-02T07:53:15.720Z,100414.63
2022-11-02T07:55:42.383Z,100426.00
2022-11-02T07:58:17.909Z,100424.91
2022-11-02T08:00:44.587Z,100435.19
2022-11-02T08:03:12.195Z,100419.03
2022-11-02T08:05:40.910Z,100424.22
2022-11-02T08:08:10.888Z,100427.69
2022-11-02T08:10:40.480Z,100437.03
2022-11-02T08:13:08.750Z,100436.00
2022-11-02T08:15:35.341Z,100434.78
2022-11-02T08:18:09.685Z,100438.97
2022-11-02T08:20:36.619Z,100447.78
2022-11-02T08:23:04.196Z,100443.88
2022-11-02T08:25:31.535Z,100440.84
2022-11-02T08:27:59.262Z,100441.84
2022-11-02T08:30:27.042Z,100446.19
2022-11-02T08:32:56.760Z,100461.03
2022-11-02T08:35:24.133Z,100449.09
2022-11-02T08:37:57.690Z,100458.97
2022-11-02T08:40:24.387Z,100463.53
2022-11-02T08:42:58.840Z,100471.97
2022-11-02T08:45:32.320Z,100454.00
2022-11-02T08:48:06.846Z,100482.50
2022-11-02T08:50:40.901Z,100457.50
2022-11-02T08:53:07.545Z,100470.28
2022-11-02T08:55:34.257Z,100475.22
2022-11-02T08:58:01.275Z,100478.34
2022-11-02T09:00:30.422Z,100472.97
2022-11-02T09:03:05.144Z,100488.66
2022-11-02T09:05:34.227Z,100488.13
2022-11-02T09:08:03.781Z,100480.06
2022-11-02T09:10:32.679Z,100472.03
2022-11-02T09:13:00.873Z,100483.28
2022-11-02T09:15:28.418Z,100488.66
2022-11-02T09:17:55.059Z,100477.69
2022-11-02T09:20:22.433Z,100491.56
2022-11-02T09:22:49.407Z,100494.72
2022-11-02T09:25:16.709Z,100515.50
2022-11-02T09:27:43.570Z,100488.34
2022-11-02T09:30:11.633Z,100504.75
2022-11-02T09:32:39.641Z,100507.44
2022-11-02T09:35:10.027Z,100516.53
2022-11-02T09:37:37.253Z,100522.78
2022-11-02T09:40:09.638Z,100511.59
2022-11-02T09:42:57.093Z,100536.47
2022-11-02T09:45:24.100Z,100544.50
2022-11-02T09:48:16.797Z,100546.97
2022-11-02T09:50:48.695Z,100533.97
2022-11-02T09:53:21.132Z,100550.69
2022-11-02T09:55:57.392Z,100548.84
2022-11-02T09:58:34.786Z,100553.19
2022-11-02T10:01:09.637Z,100551.13
2022-11-02T10:03:53.072Z,100564.56
2022-11-02T10:06:21.802Z,100564.78
2022-11-02T10:08:57.583Z,100566.81
2022-11-02T10:12:02.778Z,100558.97
2022-11-02T10:14:35.419Z,100585.03
2022-11-02T10:17:24.482Z,100581.91
2022-11-02T10:19:59.752Z,100580.69
2022-11-02T10:22:31.554Z,100572.63
2022-11-02T10:24:58.498Z,100575.94
2022-11-02T10:27:27.272Z,100578.19
2022-11-02T10:29:56.953Z,100586.69
2022-11-02T10:32:23.658Z,100593.69
2022-11-02T10:34:58.633Z,100587.91
2022-11-02T10:38:13.477Z,100599.88
2022-11-02T10:40:45.871Z,100602.66
2022-11-02T10:43:21.496Z,100598.84
2022-11-02T10:46:00.369Z,100604.97
2022-11-02T10:48:55.052Z,100609.31
2022-11-02T10:51:22.034Z,100604.19
2022-11-02T10:53:50.429Z,100613.53
2022-11-02T10:56:24.204Z,100616.47
2022-11-02T10:59:02.479Z,100612.31
2022-11-02T11:01:30.994Z,100623.66
2022-11-02T11:04:07.005Z,100631.72
2022-11-02T11:06:41.613Z,100629.69
2022-11-02T11:09:23.666Z,100624.31
2022-11-02T11:11:54.914Z,100627.38
2022-11-02T11:20:08.623Z,100651.38
2022-11-02T11:22:39.045Z,100642.09
2022-11-02T11:25:27.981Z,100650.97
2022-11-02T11:27:59.586Z,100652.22
2022-11-02T11:33:23.309Z,100658.63
2022-11-02T11:35:50.631Z,100662.97
2022-11-02T11:38:19.978Z,100658.19
2022-11-02T11:40:49.135Z,100666.06
2022-11-02T11:43:17.540Z,100663.09
2022-11-02T11:45:56.615Z,100660.84
2022-11-02T11:48:42.004Z,100655.84
2022-11-02T11:51:26.602Z,100674.13
2022-11-02T11:54:15.285Z,100673.50
2022-11-02T11:56:41.992Z,100668.75
2022-11-02T11:59:25.364Z,100678.47
2022-11-02T12:01:59.189Z,100665.84
2022-11-02T12:04:34.503Z,100674.56
2022-11-02T12:07:14.896Z,100671.00
2022-11-02T12:09:50.338Z,100676.38
2022-11-02T12:12:35.206Z,100662.75
2022-11-02T12:15:32.775Z,100674.50
2022-11-02T12:18:09.813Z,100670.91
2022-11-02T12:20:52.123Z,100669.50
2022-11-02T12:23:32.585Z,100660.97
2022-11-02T12:26:17.971Z,100666.13
2022-11-02T12:28:50.550Z,100671.94
2022-11-02T12:31:54.550Z,100666.78
2022-11-02T12:37:57.890Z,100668.97
2022-11-02T12:40:36.376Z,100672.50
2022-11-02T12:43:15.129Z,100673.75
2022-11-02T12:46:07.658Z,100684.47
2022-11-02T12:48:52.554Z,100676.41
2022-11-02T12:51:22.748Z,100679.94
2022-11-02T12:53:50.688Z,100696.47
2022-11-02T12:56:25.262Z,100686.75
2022-11-02T12:58:53.338Z,100680.56
2022-11-02T13:01:47.156Z,100690.88
2022-11-02T13:04:21.161Z,100695.81
2022-11-02T13:06:54.137Z,100696.44
2022-11-02T13:09:40.812Z,100691.91
2022-11-02T13:12:15.007Z,100689.00
2022-11-02T13:14:53.453Z,100700.38
2022-11-02T13:17:28.703Z,100698.53
2022-11-02T13:19:58.807Z,100705.13
2022-11-02T13:22:28.821Z,100698.28
2022-11-02T13:25:05.741Z,100705.31
2022-11-02T13:27:40.409Z,100701.59
2022-11-02T13:30:14.931Z,100702.81
2022-11-02T13:32:49.250Z,100697.00
2022-11-02T13:35:36.217Z,100694.56
2022-11-02T13:38:47.779Z,100693.31
2022-11-02T13:41:15.479Z,100695.78
2022-11-02T13:44:07.007Z,100699.06
2022-11-02T13:47:01.367Z,100710.44
2022-11-02T13:49:45.350Z,100703.22
2022-11-02T13:52:15.304Z,100705.06
2022-11-02T13:55:00.338Z,100702.34
2022-11-02T13:57:36.523Z,100705.22
2022-11-02T14:00:06.892Z,100711.66
2022-11-02T14:02:36.766Z,100717.81
2022-11-02T14:05:04.086Z,100717.75
2022-11-02T14:07:34.523Z,100720.47
2022-11-02T14:10:17.928Z,100723.59
2022-11-02T14:12:48.984Z,100719.25
2022-11-02T14:15:15.568Z,100726.66
2022-11-02T14:18:12.362Z,100717.81
2022-11-02T14:20:47.896Z,100730.03
2022-11-02T14:23:14.571Z,100729.97
2022-11-02T14:25:47.333Z,100723.41
2022-11-02T14:28:20.021Z,100725.00
2022-11-02T14:30:53.477Z,100722.47
2022-11-02T14:33:32.414Z,100713.03
2022-11-02T14:36:23.912Z,100716.28
2022-11-02T14:39:16.890Z,100710.13
2022-11-02T14:41:56.156Z,100721.44
2022-11-02T14:44:39.056Z,100715.84
2022-11-02T14:47:14.127Z,100710.66
2022-11-02T14:49:51.400Z,100711.47
2022-11-02T14:52:30.772Z,100718.84
2022-11-02T14:55:18.124Z,100721.56
2022-11-02T14:58:05.319Z,100711.63
2022-11-02T15:00:38.647Z,100716.81
2022-11-02T15:03:23.985Z,100712.88
2022-11-02T15:06:03.850Z,100717.56
2022-11-02T15:08:37.011Z,100716.88
2022-11-02T15:11:41.173Z,100721.41
2022-11-02T15:14:32.786Z,100710.13
2022-11-02T15:16:59.745Z,100713.47
2022-11-02T15:19:39.679Z,100713.94
2022-11-02T15:22:31.354Z,100708.97
2022-11-02T15:25:01.449Z,100701.03
2022-11-02T15:27:28.552Z,100702.31
2022-11-02T15:29:56.778Z,100712.28
2022-11-02T15:32:25.828Z,100708.47
2022-11-02T15:34:55.392Z,100710.13
2022-11-02T15:37:28.857Z,100711.41
2022-11-02T15:40:00.341Z,100714.84
2022-11-02T15:42:30.033Z,100719.19
2022-11-02T15:45:47.485Z,100725.09
2022-11-02T15:48:34.883Z,100722.03
2022-11-02T15:51:16.821Z,100720.13
2022-11-02T15:53:52.089Z,100710.81
2022-11-02T15:56:29.803Z,100707.63
2022-11-02T15:59:15.111Z,100721.31
2022-11-02T16:01:42.801Z,100712.16
2022-11-02T16:04:20.795Z,100713.38
2022-11-02T16:06:54.061Z,100709.19
2022-11-02T16:09:33.762Z,100705.13
2022-11-02T16:12:21.259Z,100709.44
2022-11-02T16:14:52.487Z,100713.44
2022-11-02T16:17:27.077Z,100711.56
2022-11-02T16:20:15.890Z,100716.34
2022-11-02T16:23:10.126Z,100715.16
2022-11-02T16:25:46.124Z,100708.25
2022-11-02T16:28:19.535Z,100707.44
2022-11-02T16:31:13.531Z,100711.22
2022-11-02T16:33:52.696Z,100712.59
2022-11-02T16:36:21.937Z,100719.69
2022-11-02T16:39:31.766Z,100723.59
2022-11-02T16:41:59.539Z,100713.47
2022-11-02T16:44:30.883Z,100712.13
2022-11-02T16:47:06.838Z,100717.47
2022-11-02T16:49:35.044Z,100718.19
2022-11-02T16:52:17.038Z,100722.84
2022-11-02T16:54:44.269Z,100733.22
2022-11-02T16:57:12.144Z,100721.75
2022-11-02T17:00:11.501Z,100722.09
2022-11-02T17:02:38.834Z,100723.13
2022-11-02T17:05:32.789Z,100730.53
2022-11-02T17:08:11.788Z,100715.94
2022-11-02T17:10:38.903Z,100718.16
2022-11-02T17:13:09.100Z,100730.34
2022-11-02T17:15:37.496Z,100723.13
2022-11-02T17:18:10.099Z,100723.09
2022-11-02T17:20:40.196Z,100718.34
2022-11-02T17:23:27.822Z,100717.88
2022-11-02T17:26:23.400Z,100727.25
2022-11-02T17:28:57.617Z,100730.75
2022-11-02T17:31:36.124Z,100722.72
2022-11-02T17:34:09.251Z,100720.66
2022-11-02T17:36:46.513Z,100724.50
2022-11-02T17:39:15.071Z,100723.03
2022-11-02T17:42:01.815Z,100725.41
2022-11-02T17:44:28.463Z,100719.91
2022-11-02T17:46:55.333Z,100729.59
2022-11-02T17:49:29.379Z,100726.00
2022-11-02T17:51:56.041Z,100737.00
2022-11-02T17:54:22.700Z,100731.66
2022-11-02T17:56:54.702Z,100732.22
2022-11-02T17:59:21.441Z,100727.69
2022-11-02T18:01:48.319Z,100731.19
2022-11-02T18:04:15.034Z,100726.09
2022-11-02T18:06:41.619Z,100718.78
2022-11-02T18:09:11.048Z,100717.00
2022-11-02T18:11:37.649Z,100709.88
2022-11-02T18:14:04.591Z,100715.50
2022-11-02T18:16:32.129Z,100710.63
2022-11-02T18:18:58.722Z,100714.03
2022-11-02T18:21:25.285Z,100716.38
2022-11-02T18:23:52.008Z,100708.44
2022-11-02T18:26:18.534Z,100702.72
2022-11-02T18:28:45.190Z,100712.75
2022-11-02T18:31:11.874Z,100713.03
2022-11-02T18:33:38.520Z,100713.34
2022-11-02T18:36:07.801Z,100709.53
2022-11-02T18:38:34.855Z,100697.44
2022-11-02T18:41:27.415Z,100695.47
2022-11-02T18:44:00.676Z,100698.47
2022-11-02T18:46:31.644Z,100694.97
2022-11-02T18:48:58.537Z,100699.00
2022-11-02T18:51:25.526Z,100704.66
2022-11-02T18:53:58.803Z,100690.69
2022-11-02T18:56:25.829Z,100685.03
2022-11-02T18:58:53.675Z,100691.31
2022-11-02T19:01:21.829Z,100681.78
2022-11-02T19:04:06.554Z,100687.25
2022-11-02T19:06:52.359Z,100679.06
2022-11-02T19:09:24.606Z,100673.31
2022-11-02T19:12:00.317Z,100678.97
2022-11-02T19:14:29.666Z,100674.47
2022-11-02T19:16:56.430Z,100670.97
2022-11-02T19:19:23.113Z,100667.66
2022-11-02T19:21:49.956Z,100672.06
2022-11-02T19:24:16.669Z,100655.94
2022-11-02T19:26:43.368Z,100662.88
2022-11-02T19:29:10.048Z,100659.91
2022-11-02T19:31:36.811Z,100656.75
2022-11-02T19:34:04.155Z,100661.66
2022-11-02T19:36:31.599Z,100653.03
2022-11-02T19:38:59.962Z,100658.63
2022-11-02T19:41:27.138Z,100657.97
2022-11-02T19:43:53.863Z,100656.06
2022-11-02T19:46:22.221Z,100643.47
2022-11-02T19:48:49.147Z,100641.16
2022-11-02T19:51:20.434Z,100641.50
2022-11-02T19:53:52.177Z,100642.00
2022-11-02T19:56:20.765Z,100644.75
2022-11-02T19:58:49.157Z,100632.34
2022-11-02T20:01:17.300Z,100639.25
2022-11-02T20:03:44.677Z,100635.97
2022-11-02T20:06:13.482Z,100631.91
2022-11-02T20:08:40.162Z,100629.16
2022-11-02T20:11:07.656Z,100626.59
2022-11-02T20:13:35.475Z,100623.53
2022-11-02T20:16:05.924Z,100628.00
2022-11-02T20:18:34.078Z,100624.00
2022-11-02T20:21:08.023Z,100623.63
2022-11-02T20:23:35.540Z,100625.94
2022-11-02T20:26:05.947Z,100610.91
2022-11-02T20:28:39.211Z,100615.78
2022-11-02T20:31:08.194Z,100610.44
2022-11-02T20:33:35.433Z,100612.84
2022-11-02T20:36:06.847Z,100612.03
2022-11-02T20:38:36.225Z,100616.31
2022-11-02T20:41:14.715Z,100614.28
2022-11-02T20:43:43.058Z,100611.06
2022-11-02T20:46:37.166Z,100608.25
2022-11-02T20:49:14.048Z,100606.84
2022-11-02T20:51:54.687Z,100601.06
2022-11-02T20:54:23.408Z,100608.53
2022-11-02T20:56:50.555Z,100599.31
2022-11-02T20:59:20.100Z,100582.75
2022-11-02T21:01:46.901Z,100577.13
2022-11-02T21:04:19.832Z,100586.41
2022-11-02T21:06:53.193Z,100576.81
2022-11-02T21:09:19.989Z,100574.63
2022-11-02T21:12:05.513Z,100578.31
2022-11-02T21:14:32.314Z,100574.63
2022-11-02T21:16:58.952Z,100579.50
2022-11-02T21:19:25.677Z,100574.81
2022-11-02T21:21:59.324Z,100569.66
2022-11-02T21:24:27.479Z,100559.03
2022-11-02T21:26:56.690Z,100558.38
2022-11-02T21:29:23.411Z,100557.88
2022-11-02T21:31:50.221Z,100557.66
2022-11-02T21:34:16.796Z,100553.47
2022-11-02T21:36:43.402Z,100556.59
2022-11-02T21:39:12.943Z,100560.75
2022-11-02T21:41:39.611Z,100557.22
2022-11-02T21:44:07.263Z,100551.41
2022-11-02T21:46:33.904Z,100545.63
2022-11-02T21:49:00.624Z,100546.25
2022-11-02T21:51:28.455Z,100556.94
2022-11-02T21:54:01.104Z,100544.38
2022-11-02T21:56:31.837Z,100547.69
2022-11-02T21:58:58.611Z,100549.88
2022-11-02T22:01:46.746Z,100555.19
2022-11-02T22:04:28.704Z,100553.47
2022-11-02T22:06:55.769Z,100549.31
2022-11-02T22:09:25.523Z,100552.97
2022-11-02T22:12:10.787Z,100549.13
2022-11-02T22:14:38.169Z,100548.81
2022-11-02T22:17:16.321Z,100548.63
2022-11-02T22:19:43.491Z,100533.09
2022-11-02T22:22:10.123Z,100536.50
2022-11-02T22:24:40.732Z,100542.66
2022-11-02T22:27:10.179Z,100545.50
2022-11-02T22:29:36.810Z,100540.53
2022-11-02T22:32:03.427Z,100534.19
2022-11-02T22:34:30.050Z,100530.59
2022-11-02T22:37:16.640Z,100514.88
2022-11-02T22:39:43.589Z,100517.13
2022-11-02T22:42:10.207Z,100502.91
2022-11-02T22:44:36.835Z,100510.28
2022-11-02T22:47:03.501Z,100507.44
2022-11-02T22:49:30.182Z,100503.88
2022-11-02T22:51:56.883Z,100505.53
2022-11-02T22:54:23.496Z,100496.34
2022-11-02T22:56:53.481Z,100503.34
2022-11-02T22:59:20.927Z,100499.41
2022-11-02T23:01:47.756Z,100494.22
2022-11-02T23:04:14.516Z,100498.09
2022-11-02T23:06:41.162Z,100494.59
2022-11-02T23:09:13.014Z,100488.63
2022-11-02T23:11:39.887Z,100484.22
2022-11-02T23:14:14.554Z,100490.91
2022-11-02T23:16:42.832Z,100477.75
2022-11-02T23:19:29.670Z,100471.44
2022-11-02T23:22:16.981Z,100470.06
2022-11-02T23:25:17.835Z,100475.09
2022-11-02T23:28:13.137Z,100467.63
2022-11-02T23:30:59.041Z,100466.47
2022-11-02T23:33:29.884Z,100470.59
2022-11-02T23:36:12.310Z,100455.06
2022-11-02T23:39:02.138Z,100454.88
2022-11-02T23:41:29.938Z,100459.91
2022-11-02T23:44:11.932Z,100456.84
2022-11-02T23:46:40.982Z,100448.91
2022-11-02T23:49:10.553Z,100442.94
2022-11-02T23:51:55.814Z,100453.66
2022-11-02T23:54:41.080Z,100448.09
2022-11-02T23:57:07.679Z,100444.97
2022-11-02T23:59:34.256Z,100438.34
